Time;durP1;ratioP1;P1;durP2;ratioP2;P2;SDS_P1;SDS_P2;PMS_P1;PMS_P2;Temp;Humidity;BMP_temperature;BMP_pressure;BME280_temperature;BME280_humidity;BME280_pressure;Samples;Min_cycle;Max_cycle;Signal;HPM_P1;HPM_P2
2023/04/12 00:01:17;;;;;;;4.15;2.38;;;10.90;52.50;;;13.93;37.54;97110.28;5065380;28;20048;-58
2023/04/12 00:03:49;;;;;;;4.93;2.00;;;10.70;53.30;;;13.89;37.44;97098.34;5061239;28;20033;-58
2023/04/12 00:06:17;;;;;;;6.23;2.67;;;10.70;53.40;;;13.88;37.71;97102.06;5061299;28;20052;-56
2023/04/12 00:08:45;;;;;;;2.97;2.10;;;10.70;54.20;;;13.81;38.33;97103.84;5060040;28;20068;-57
2023/04/12 00:11:13;;;;;;;6.77;2.50;;;10.60;54.80;;;13.75;38.66;97099.28;5061520;28;20041;-58
2023/04/12 00:13:40;;;;;;;4.30;2.87;;;10.60;56.10;;;13.72;39.02;97099.66;5063903;28;20501;-56
2023/04/12 00:16:08;;;;;;;3.33;2.03;;;10.60;56.60;;;13.67;39.61;97094.06;5063839;28;20053;-56
2023/04/12 00:18:36;;;;;;;4.27;2.63;;;10.50;57.50;;;13.63;39.83;97095.47;5062745;28;20067;-57
2023/04/12 00:21:04;;;;;;;5.60;2.43;;;10.50;57.70;;;13.59;40.39;97095.03;5061602;28;20045;-56
2023/04/12 00:23:32;;;;;;;10.37;3.00;;;10.40;59.30;;;13.54;40.45;97087.59;5062623;28;20033;-56
2023/04/12 00:26:00;;;;;;;5.93;1.90;;;10.40;59.50;;;13.55;40.85;97089.25;5064993;28;20048;-58
2023/04/12 00:28:27;;;;;;;6.60;2.20;;;10.40;61.20;;;13.53;41.43;97088.63;5064048;28;20036;-56
2023/04/12 00:30:55;;;;;;;5.33;2.50;;;10.30;62.10;;;13.51;41.83;97089.81;5061339;28;20041;-57
2023/04/12 00:33:22;;;;;;;4.63;1.80;;;10.30;64.00;;;13.45;41.70;97080.72;5059459;28;20056;-57
2023/04/12 00:35:50;;;;;;;3.70;2.10;;;10.20;64.30;;;13.43;42.38;97080.09;5064333;28;20509;-58
2023/04/12 00:38:18;;;;;;;7.57;3.00;;;10.20;65.00;;;13.39;42.87;97076.97;5064477;28;20048;-58
2023/04/12 00:40:45;;;;;;;3.87;2.40;;;10.10;67.10;;;13.34;43.37;97071.38;5061246;28;20051;-58
2023/04/12 00:43:17;;;;;;;3.87;2.23;;;10.00;67.90;;;13.29;43.63;97064.94;5057078;28;20449;-55
2023/04/12 00:45:46;;;;;;;5.50;2.10;;;9.90;69.00;;;13.28;43.87;97065.94;5063321;28;20040;-56
2023/04/12 00:48:15;;;;;;;5.03;2.47;;;9.90;69.50;;;13.21;44.10;97063.22;5064538;28;20041;-58
2023/04/12 00:50:46;;;;;;;9.70;3.13;;;9.90;70.60;;;13.18;44.34;97059.09;5061526;28;20416;-58
2023/04/12 00:53:14;;;;;;;6.37;2.40;;;9.80;71.40;;;13.13;44.67;97056.16;5059360;28;20040;-58
2023/04/12 00:55:44;;;;;;;6.83;4.27;;;9.80;71.70;;;13.10;45.23;97051.19;5063205;28;20068;-58
2023/04/12 00:58:13;;;;;;;6.13;3.03;;;9.80;72.70;;;13.09;45.33;97049.53;5064381;28;20047;-58
2023/04/12 01:00:43;;;;;;;6.20;3.70;;;9.80;73.30;;;13.07;45.40;97043.56;5060245;28;20056;-58
2023/04/12 01:03:12;;;;;;;6.73;2.43;;;9.80;73.80;;;13.07;45.55;97042.75;5059107;28;20045;-58
2023/04/12 01:05:58;;;;;;;5.97;2.80;;;9.70;75.40;;;13.03;45.70;97039.63;5062620;28;20053;-58
2023/04/12 01:09:10;;;;;;;4.23;2.10;;;9.70;75.20;;;12.98;45.85;97037.50;5062666;28;20501;-57
2023/04/12 01:11:55;;;;;;;4.80;1.90;;;9.70;77.20;;;12.99;46.16;97033.84;5062411;28;20037;-58
2023/04/12 01:15:03;;;;;;;5.03;2.40;;;9.60;77.80;;;12.93;45.91;97036.44;5047424;28;20051;-58
2023/04/12 01:17:42;;;;;;;4.00;2.37;;;9.60;78.20;;;12.93;46.29;97034.59;5061360;28;20041;-58
2023/04/12 01:20:18;;;;;;;4.57;2.47;;;9.60;78.80;;;12.91;46.30;97033.97;5030681;28;20044;-58
2023/04/12 01:23:25;;;;;;;5.03;2.30;;;9.50;78.80;;;12.88;46.59;97023.66;5042778;28;20049;-58
2023/04/12 01:26:38;;;;;;;4.57;2.40;;;9.60;80.20;;;12.83;47.12;97027.91;5051244;28;20041;-58
2023/04/12 01:29:13;;;;;;;6.40;3.43;;;9.50;81.20;;;12.77;47.53;97018.81;5054240;28;20041;-58
2023/04/12 01:31:59;;;;;;;5.17;2.30;;;9.40;81.30;;;12.74;47.43;97014.69;5062407;28;20522;-57
2023/04/12 01:34:31;;;;;;;3.83;2.30;;;9.40;82.90;;;12.70;48.13;97017.94;5046244;28;20048;-58
2023/04/12 01:37:02;;;;;;;6.90;2.57;;;9.40;83.90;;;12.69;48.26;97002.91;5039447;28;20419;-56
2023/04/12 01:39:32;;;;;;;3.83;2.47;;;9.30;84.60;;;12.70;48.09;96991.22;5056854;28;20048;-57
2023/04/12 01:41:59;;;;;;;3.97;2.20;;;9.30;86.20;;;12.69;48.47;96979.69;5045427;28;20494;-57
2023/04/12 01:44:28;;;;;;;4.00;2.17;;;9.40;85.90;;;12.68;48.38;96982.56;5060459;28;20044;-58
2023/04/12 01:46:56;;;;;;;4.10;2.57;;;9.40;84.80;;;12.66;48.43;96980.09;5059736;28;20045;-58
2023/04/12 01:49:42;;;;;;;5.03;2.80;;;9.40;85.10;;;12.67;48.23;96976.41;5042131;28;20041;-58
2023/04/12 01:52:15;;;;;;;6.20;3.00;;;9.50;85.90;;;12.69;48.96;96973.53;5039590;28;20037;-58
2023/04/12 01:54:47;;;;;;;4.57;3.10;;;9.50;85.70;;;12.71;48.95;96963.50;5042827;28;20052;-58
2023/04/12 01:57:17;;;;;;;7.30;3.10;;;9.50;86.70;;;12.70;48.81;96956.50;5063432;28;20667;-57
2023/04/12 01:59:47;;;;;;;4.13;2.47;;;9.40;85.90;;;12.68;48.53;96954.03;5042515;28;20052;-58
2023/04/12 02:02:16;;;;;;;6.00;2.90;;;9.50;85.80;;;12.69;48.88;96957.53;5058138;28;20044;-58
2023/04/12 02:04:44;;;;;;;4.93;2.20;;;9.50;85.80;;;12.65;49.22;96953.59;5060356;28;20052;-58
2023/04/12 02:07:14;;;;;;;4.83;2.47;;;9.40;85.70;;;12.56;49.30;96944.84;5061681;28;20052;-57
2023/04/12 02:09:41;;;;;;;6.73;3.80;;;9.40;86.90;;;12.54;49.67;96947.75;5042864;28;20502;-58
2023/04/12 02:12:09;;;;;;;4.43;2.50;;;9.30;87.40;;;12.54;49.26;96942.41;5058164;28;20414;-58
2023/04/12 02:14:37;;;;;;;4.37;2.60;;;9.30;87.80;;;12.53;49.90;96934.56;5060449;28;20045;-58
2023/04/12 02:17:04;;;;;;;4.27;2.77;;;9.30;88.60;;;12.49;49.81;96931.47;5061091;28;20051;-58
2023/04/12 02:19:32;;;;;;;4.73;2.53;;;9.20;88.60;;;12.49;49.74;96926.13;5061964;28;20044;-58
2023/04/12 02:22:01;;;;;;;3.10;2.53;;;9.20;89.00;;;12.49;49.72;96922.63;5058239;28;20048;-59
2023/04/12 02:24:29;;;;;;;3.80;2.10;;;9.20;88.80;;;12.52;49.87;96919.56;5041232;28;20049;-58
2023/04/12 02:27:00;;;;;;;3.73;2.20;;;9.20;88.70;;;12.54;49.71;96913.03;5061322;28;20048;-58
2023/04/12 02:29:28;;;;;;;4.23;2.97;;;9.30;89.20;;;12.53;49.43;96911.38;5060421;28;20048;-58
2023/04/12 02:31:56;;;;;;;4.53;2.80;;;9.30;88.50;;;12.50;50.28;96910.91;5057825;28;20041;-58
2023/04/12 02:34:30;;;;;;;6.30;2.07;;;9.30;89.00;;;12.46;50.10;96902.47;5058935;28;20036;-56
2023/04/12 02:37:07;;;;;;;6.97;2.57;;;9.20;89.20;;;12.45;49.94;96900.81;5051565;28;20051;-58
2023/04/12 02:39:36;;;;;;;4.37;2.13;;;9.20;90.20;;;12.45;50.33;96894.66;5060101;28;20049;-58
2023/04/12 02:42:05;;;;;;;5.67;2.70;;;9.20;90.70;;;12.44;50.69;96890.34;5060940;28;20410;-58
2023/04/12 02:44:33;;;;;;;3.73;2.53;;;9.30;90.40;;;12.45;50.48;96887.47;5044096;28;20040;-59
2023/04/12 02:47:12;;;;;;;5.50;2.97;;;9.30;90.30;;;12.47;50.34;96884.63;5057795;28;20049;-58
2023/04/12 02:49:43;;;;;;;5.20;2.27;;;9.30;90.90;;;12.49;50.30;96877.25;5043811;28;20080;-59
2023/04/12 02:52:14;;;;;;;4.07;2.67;;;9.30;90.60;;;12.46;50.26;96875.75;5044732;28;20048;-58
2023/04/12 02:54:57;;;;;;;3.80;2.23;;;9.30;90.30;;;12.44;50.34;96863.63;5051856;28;20037;-58
2023/04/12 02:57:24;;;;;;;5.13;2.13;;;9.30;90.40;;;12.43;50.99;96867.31;5061227;28;20060;-57
2023/04/12 02:59:52;;;;;;;4.20;2.30;;;9.30;91.00;;;12.44;50.81;96851.09;5081447;28;20052;-58
2023/04/12 03:02:26;;;;;;;5.17;2.17;;;9.30;91.10;;;12.49;50.61;96839.88;5049518;28;20048;-58
2023/04/12 03:04:59;;;;;;;3.80;2.30;;;9.20;92.50;;;12.48;50.85;96844.38;5057896;28;20045;-58
2023/04/12 03:07:36;;;;;;;4.27;2.10;;;9.30;93.60;;;12.45;50.72;96838.59;5073391;28;20521;-59
2023/04/12 03:10:06;;;;;;;3.97;2.37;;;9.30;93.40;;;12.44;50.98;96834.28;5064748;28;20045;-58
2023/04/12 03:12:37;;;;;;;6.60;2.50;;;9.30;94.60;;;12.40;50.99;96821.28;5063592;28;20044;-58
2023/04/12 03:15:16;;;;;;;4.93;2.67;;;9.30;95.30;;;12.39;51.37;96817.00;5060974;28;20669;-58
2023/04/12 03:17:48;;;;;;;4.70;2.60;;;9.30;94.80;;;12.39;51.38;96814.31;5065070;28;20041;-59
2023/04/12 03:20:19;;;;;;;4.60;2.50;;;9.30;94.60;;;12.43;51.46;96813.91;5064588;28;20044;-59
2023/04/12 03:22:58;;;;;;;3.23;2.17;;;9.30;95.50;;;12.45;51.36;96806.56;5053073;28;20533;-58
2023/04/12 03:25:27;;;;;;;6.83;2.50;;;9.30;96.70;;;12.45;51.10;96801.22;5060946;28;20048;-59
2023/04/12 03:28:00;;;;;;;5.23;2.60;;;9.30;95.70;;;12.43;51.20;96803.25;5052799;28;20041;-59
2023/04/12 03:30:44;;;;;;;3.60;2.30;;;9.30;96.00;;;12.46;51.57;96798.34;5062872;28;20053;-59
2023/04/12 03:33:12;;;;;;;4.43;2.23;;;9.30;95.80;;;12.45;51.78;96796.72;5064144;28;20045;-58
2023/04/12 03:35:40;;;;;;;5.60;2.73;;;9.30;96.40;;;12.43;52.12;96785.41;5062856;28;20048;-58
2023/04/12 03:38:07;;;;;;;5.50;2.27;;;9.30;97.30;;;12.44;51.81;96789.72;5060542;28;20048;-59
2023/04/12 03:40:36;;;;;;;5.90;3.03;;;9.30;98.80;;;12.44;52.18;96776.38;5060789;28;20391;-59
2023/04/12 03:43:03;;;;;;;6.20;2.83;;;9.20;99.20;;;12.42;51.95;96775.72;5064271;28;20048;-59
2023/04/12 03:45:31;;;;;;;6.57;2.40;;;9.30;99.30;;;12.38;52.12;96775.28;5061384;28;20490;-59
2023/04/12 03:48:01;;;;;;;4.67;2.60;;;9.30;98.50;;;12.31;52.33;96765.59;5052900;28;20044;-60
2023/04/12 03:50:42;;;;;;;4.73;2.47;;;9.30;99.10;;;12.28;52.52;96766.81;5060480;28;20494;-59
2023/04/12 03:53:14;;;;;;;7.07;3.37;;;9.30;99.40;;;12.32;52.80;96762.72;5064045;28;20041;-59
2023/04/12 03:55:44;;;;;;;3.43;2.60;;;9.20;99.90;;;12.35;52.68;96750.84;5063794;28;20037;-59
2023/04/12 03:58:12;;;;;;;7.93;3.43;;;9.20;99.90;;;12.38;52.44;96750.44;5060515;28;20044;-59
2023/04/12 04:00:43;;;;;;;5.83;2.83;;;9.20;99.90;;;12.37;52.34;96743.47;5061837;28;20045;-59
2023/04/12 04:03:11;;;;;;;3.90;2.33;;;9.20;99.90;;;12.35;52.48;96740.19;5064099;28;20040;-59
2023/04/12 04:05:45;;;;;;;4.30;2.50;;;9.20;99.90;;;12.36;52.49;96736.47;5062105;28;20044;-59
2023/04/12 04:08:15;;;;;;;4.30;2.40;;;9.30;99.90;;;12.34;52.55;96738.53;5059214;28;20052;-59
2023/04/12 04:10:52;;;;;;;4.87;3.00;;;9.20;99.90;;;12.33;52.99;96728.84;5063868;28;20425;-59
2023/04/12 04:13:25;;;;;;;5.53;2.77;;;9.10;99.90;;;12.35;52.92;96730.31;5063577;28;20063;-59
2023/04/12 04:16:03;;;;;;;6.93;2.53;;;9.10;99.90;;;12.39;52.58;96722.75;5051552;28;20051;-59
2023/04/12 04:18:31;;;;;;;4.83;2.50;;;9.20;99.90;;;12.32;52.67;96713.88;5061617;28;20041;-59
2023/04/12 04:21:00;;;;;;;3.30;2.20;;;9.20;99.90;;;12.27;53.05;96717.13;5059824;28;20399;-59
2023/04/12 04:23:37;;;;;;;4.13;2.50;;;9.20;99.90;;;12.26;52.97;96712.81;5067616;28;20041;-60
2023/04/12 04:26:09;;;;;;;5.57;2.67;;;9.20;99.90;;;12.28;53.33;96708.09;5052759;28;20037;-59
2023/04/12 04:28:45;;;;;;;4.87;3.03;;;9.20;99.90;;;12.30;52.88;96703.38;5062655;28;20108;-59
2023/04/12 04:31:17;;;;;;;3.50;2.17;;;9.20;99.90;;;12.33;53.12;96695.00;5063456;28;20037;-59
2023/04/12 04:33:49;;;;;;;8.97;3.63;;;9.10;99.90;;;12.35;53.22;96700.16;5060567;28;20056;-59
2023/04/12 04:36:18;;;;;;;4.37;2.37;;;9.10;99.90;;;12.35;53.32;96692.16;5059882;28;20048;-60
2023/04/12 04:38:52;;;;;;;5.18;2.88;;;9.10;99.90;;;12.36;52.77;96693.78;5061963;28;20049;-60
2023/04/12 04:41:37;;;;;;;4.97;2.20;;;9.20;99.90;;;12.34;53.03;96687.81;5048439;28;20044;-60
2023/04/12 04:44:10;;;;;;;;;;;9.20;99.90;;;12.38;52.42;96689.06;5056403;28;20498;-59
2023/04/12 04:46:44;;;;;;;5.77;2.20;;;9.20;99.90;;;12.37;52.62;96690.09;5057684;28;19921;-59
2023/04/12 04:49:12;;;;;;;5.50;3.70;;;9.10;99.90;;;12.31;52.91;96673.03;5059631;28;20450;-60
2023/04/12 04:51:39;;;;;;;5.77;3.50;;;9.10;99.90;;;12.29;52.79;96683.06;5059007;28;20041;-60
2023/04/12 04:54:10;;;;;;;4.47;2.20;;;9.10;99.90;;;12.25;52.79;96679.13;5062244;28;20051;-60
2023/04/12 04:56:40;;;;;;;7.23;2.83;;;9.20;99.90;;;12.21;53.06;96680.53;5062520;28;20052;-60
2023/04/12 04:59:11;;;;;;;3.67;3.03;;;9.10;99.90;;;12.19;53.26;96685.25;5059264;28;20037;-60
2023/04/12 05:01:39;;;;;;;4.80;2.03;;;9.10;99.90;;;12.20;53.06;96673.56;5059595;28;20422;-60
2023/04/12 05:04:07;;;;;;;5.20;2.63;;;9.20;99.90;;;12.17;53.41;96682.78;5062061;28;20052;-60
2023/04/12 05:06:35;;;;;;;4.17;2.47;;;9.10;99.90;;;12.20;53.73;96674.38;5064254;28;20047;-59
2023/04/12 05:09:04;;;;;;;3.83;2.33;;;9.10;99.90;;;12.20;53.65;96668.22;5051522;28;20041;-59
2023/04/12 05:11:37;;;;;;;6.20;2.87;;;9.10;99.90;;;12.17;53.85;96668.59;5043700;28;20422;-60
2023/04/12 05:14:09;;;;;;;3.93;2.40;;;9.00;99.90;;;12.21;53.79;96667.19;5062097;28;20524;-60
2023/04/12 05:16:40;;;;;;;4.57;2.10;;;9.00;99.90;;;12.22;53.60;96655.50;5062032;28;20071;-60
2023/04/12 05:19:07;;;;;;;3.97;2.40;;;9.00;99.90;;;12.23;53.87;96656.31;5038996;28;20052;-60
2023/04/12 05:21:35;;;;;;;4.87;2.60;;;9.10;99.90;;;12.23;53.84;96648.31;5056431;28;20033;-60
2023/04/12 05:24:02;;;;;;;2.93;2.00;;;9.10;99.90;;;12.16;53.65;96646.44;5063453;28;20047;-60
2023/04/12 05:26:33;;;;;;;3.97;2.23;;;9.10;99.90;;;12.12;53.84;96642.53;5062597;28;20056;-60
2023/04/12 05:29:02;;;;;;;6.33;2.60;;;9.10;99.90;;;12.11;53.85;96645.38;5050591;28;20041;-60
2023/04/12 05:31:31;;;;;;;4.27;2.63;;;9.10;99.90;;;12.11;54.40;96634.69;5060364;28;20045;-60
2023/04/12 05:34:02;;;;;;;4.13;2.60;;;9.20;99.90;;;12.14;53.84;96634.31;5060909;28;20041;-60
2023/04/12 05:36:34;;;;;;;5.63;3.40;;;9.20;99.90;;;12.12;54.13;96631.84;5062332;28;20524;-60
2023/04/12 05:39:03;;;;;;;3.33;2.67;;;9.20;99.90;;;12.11;53.98;96618.69;5052382;28;20045;-60
2023/04/12 05:41:33;;;;;;;5.73;2.63;;;9.20;99.90;;;12.11;54.44;96624.84;5062232;28;20040;-60
2023/04/12 05:44:02;;;;;;;3.33;2.70;;;9.10;99.90;;;12.12;54.45;96612.34;5058621;28;20049;-60
2023/04/12 05:46:30;;;;;;;3.90;3.20;;;9.10;99.90;;;12.11;54.68;96613.34;5063796;28;20045;-62
2023/04/12 05:48:58;;;;;;;5.37;3.03;;;9.10;99.90;;;12.16;54.60;96610.94;5058721;28;20048;-62
2023/04/12 05:51:27;;;;;;;4.70;3.20;;;9.10;99.90;;;12.21;54.31;96616.50;5058418;28;20049;-60
2023/04/12 05:54:10;;;;;;;5.90;3.63;;;9.10;99.90;;;12.21;54.28;96609.34;5050836;28;20414;-60
2023/04/12 05:56:38;;;;;;;5.40;2.93;;;9.20;99.90;;;12.15;54.36;96598.59;5057896;28;20060;-60
2023/04/12 05:59:06;;;;;;;3.70;2.80;;;9.20;99.90;;;12.13;54.46;96595.31;5063555;28;20049;-60
2023/04/12 06:01:33;;;;;;;5.13;2.87;;;9.10;99.90;;;12.15;54.95;96583.41;5055568;28;20414;-60
2023/04/12 06:04:01;;;;;;;3.67;2.70;;;9.20;99.90;;;12.18;54.86;96571.53;5043102;28;20489;-61
2023/04/12 06:06:30;;;;;;;4.13;2.40;;;9.20;99.90;;;12.21;54.60;96571.13;5062030;28;20052;-60
2023/04/12 06:08:59;;;;;;;5.77;2.80;;;9.20;99.90;;;12.24;54.48;96565.41;5059325;28;20049;-60
2023/04/12 06:11:28;;;;;;;3.43;2.63;;;9.30;99.90;;;12.26;54.78;96562.56;5058251;28;20041;-61
2023/04/12 06:13:56;;;;;;;4.30;2.77;;;9.30;99.90;;;12.30;54.16;96556.59;5059150;28;20048;-61
2023/04/12 06:16:24;;;;;;;3.23;2.53;;;9.30;99.90;;;12.26;54.34;96555.34;5061560;28;20386;-61
2023/04/12 06:18:52;;;;;;;3.57;2.33;;;9.30;99.90;;;12.31;54.50;96550.25;5060365;28;20037;-61
2023/04/12 06:21:20;;;;;;;4.47;2.27;;;9.30;99.90;;;12.34;54.52;96546.38;5038314;28;20423;-61
2023/04/12 06:23:48;;;;;;;3.63;2.53;;;9.30;99.90;;;12.35;54.73;96548.84;5057334;28;20120;-61
2023/04/12 06:26:16;;;;;;;3.00;2.13;;;9.40;99.90;;;12.40;54.17;96537.56;5044807;28;20044;-61
2023/04/12 06:28:45;;;;;;;2.97;2.47;;;9.40;99.90;;;12.34;54.38;96533.84;5060946;28;20075;-61
2023/04/12 06:31:15;;;;;;;3.73;2.30;;;9.40;99.90;;;12.32;54.88;96527.06;5057514;28;20048;-61
2023/04/12 06:33:43;;;;;;;3.63;2.60;;;9.40;99.90;;;12.34;54.82;96525.00;5057201;28;20048;-61
2023/04/12 06:36:13;;;;;;;3.97;2.63;;;9.40;99.90;;;12.39;54.90;96526.06;5061555;28;20037;-60
2023/04/12 06:38:41;;;;;;;6.57;2.73;;;9.50;99.90;;;12.40;55.23;96518.88;5061312;28;20063;-61
2023/04/12 06:41:10;;;;;;;3.90;2.73;;;9.40;99.90;;;12.47;54.64;96514.38;5051390;28;20418;-60
2023/04/12 06:43:38;;;;;;;5.13;3.00;;;9.50;99.90;;;12.53;54.80;96505.56;5057323;28;20505;-60
2023/04/12 06:46:07;;;;;;;2.80;2.00;;;9.50;99.90;;;12.59;54.97;96506.59;5058309;28;20052;-61
2023/04/12 06:48:35;;;;;;;2.63;2.00;;;9.50;99.90;;;12.57;54.69;96501.47;5062729;28;20048;-61
2023/04/12 06:51:02;;;;;;;3.20;2.03;;;9.60;99.90;;;12.56;54.81;96496.31;5059863;28;20421;-61
2023/04/12 06:53:30;;;;;;;4.50;2.00;;;9.60;99.90;;;12.63;54.52;96483.81;5058773;28;20033;-63
2023/04/12 06:56:02;;;;;;;2.23;1.50;;;9.70;99.90;;;12.68;54.13;96477.84;5060970;28;20041;-62
2023/04/12 06:58:30;;;;;;;3.80;1.77;;;9.80;99.90;;;12.59;54.54;96472.72;5061653;28;20405;-63
2023/04/12 07:01:09;;;;;;;4.00;1.90;;;9.80;99.90;;;12.60;54.58;96473.53;5060471;28;20040;-63
2023/04/12 07:03:36;;;;;;;1.90;1.70;;;9.80;99.90;;;12.54;55.07;96477.84;5058637;28;20048;-63
2023/04/12 07:06:04;;;;;;;3.23;1.77;;;9.80;99.90;;;12.58;54.99;96459.56;5061971;28;20056;-63
2023/04/12 07:08:51;;;;;;;2.77;1.80;;;9.80;99.90;;;12.67;54.43;96452.19;5061654;28;20052;-65
2023/04/12 07:11:21;;;;;;;2.20;1.60;;;9.90;99.90;;;12.76;54.54;96449.13;5037372;28;20045;-65
2023/04/12 07:13:50;;;;;;;3.83;2.10;;;9.90;99.90;;;12.86;54.62;96448.72;5056636;28;20435;-65
2023/04/12 07:16:17;;;;;;;2.80;1.83;;;9.90;99.90;;;12.92;54.46;96441.75;5061931;28;20029;-65
2023/04/12 07:18:45;;;;;;;2.67;1.77;;;9.90;99.90;;;12.95;54.48;96442.16;5062253;28;20048;-65
2023/04/12 07:21:13;;;;;;;4.17;2.27;;;10.00;99.90;;;13.01;54.16;96437.84;5059442;28;20048;-65
2023/04/12 07:23:41;;;;;;;3.97;2.83;;;10.10;99.90;;;13.04;54.20;96436.59;5056756;28;20056;-65
2023/04/12 07:26:08;;;;;;;3.60;2.00;;;10.10;99.90;;;13.09;54.33;96426.13;5061712;28;20040;-65
2023/04/12 07:28:37;;;;;;;3.83;1.87;;;10.10;99.90;;;13.11;54.47;96426.75;5062582;28;20049;-64
2023/04/12 07:31:06;;;;;;;2.97;2.00;;;10.20;99.90;;;13.17;54.57;96416.03;5059436;28;20045;-65
2023/04/12 07:33:36;;;;;;;3.27;2.27;;;10.20;99.90;;;13.26;53.98;96411.31;5058347;28;20052;-65
2023/04/12 07:36:07;;;;;;;3.27;1.90;;;10.30;99.90;;;13.33;54.25;96401.44;5060571;28;20051;-64
2023/04/12 07:38:34;;;;;;;3.70;1.87;;;10.30;99.90;;;13.39;53.97;96389.91;5062310;28;20051;-65
2023/04/12 07:41:02;;;;;;;3.03;1.53;;;10.30;99.90;;;13.45;54.00;96387.44;5060052;28;20049;-64
2023/04/12 07:43:29;;;;;;;2.47;1.60;;;10.40;99.90;;;13.47;53.66;96374.69;5061815;28;20037;-63
2023/04/12 07:45:57;;;;;;;3.17;2.07;;;10.50;99.90;;;13.49;53.73;96362.75;5063200;28;20051;-63
2023/04/12 07:48:25;;;;;;;3.17;2.30;;;10.50;99.90;;;13.54;53.71;96364.78;5065814;28;20047;-63
2023/04/12 07:50:53;;;;;;;4.93;2.40;;;10.50;99.90;;;13.56;53.60;96362.72;5063850;28;20052;-64
2023/04/12 07:53:27;;;;;;;2.17;1.70;;;10.50;99.90;;;13.59;53.64;96355.09;5062120;28;20044;-65
2023/04/12 07:55:55;;;;;;;3.60;1.53;;;10.50;99.90;;;13.64;53.20;96346.44;5062820;28;20056;-64
2023/04/12 07:58:23;;;;;;;3.03;2.27;;;10.50;99.90;;;13.66;53.30;96343.56;5063732;28;20051;-64
2023/04/12 08:00:52;;;;;;;2.83;2.27;;;10.50;99.90;;;13.73;53.08;96344.34;5064804;28;20048;-64
2023/04/12 08:03:20;;;;;;;3.03;1.70;;;10.50;99.90;;;13.79;52.95;96333.63;5061944;28;20045;-64
2023/04/12 08:05:52;;;;;;;2.53;1.70;;;10.60;99.90;;;13.86;52.80;96335.44;5061923;28;20048;-64
2023/04/12 08:08:22;;;;;;;3.77;1.80;;;10.60;99.90;;;13.87;52.85;96332.53;5065124;28;20040;-64
2023/04/12 08:10:51;;;;;;;2.80;1.70;;;10.70;99.90;;;13.89;52.80;96340.38;5064800;28;20040;-64
2023/04/12 08:13:19;;;;;;;3.33;1.90;;;10.70;99.90;;;13.91;52.56;96325.72;5061421;28;20417;-64
2023/04/12 08:15:46;;;;;;;3.63;1.77;;;10.70;99.90;;;13.91;52.51;96325.72;5061410;28;20415;-64
2023/04/12 08:18:14;;;;;;;4.27;1.80;;;10.80;99.90;;;13.91;52.81;96324.91;5053727;28;20041;-65
2023/04/12 08:20:45;;;;;;;6.30;2.43;;;10.80;99.90;;;13.92;52.45;96329.22;5061723;28;20037;-65
2023/04/12 08:23:12;;;;;;;3.50;2.10;;;10.80;99.90;;;13.90;52.31;96324.09;5064635;28;20040;-65
2023/04/12 08:25:40;;;;;;;4.07;2.37;;;10.80;99.90;;;13.94;52.43;96325.31;5063626;28;20497;-64
2023/04/12 08:28:08;;;;;;;4.87;2.40;;;10.80;99.90;;;13.99;52.71;96327.34;5060638;28;20055;-64
2023/04/12 08:30:35;;;;;;;4.23;1.70;;;10.90;99.90;;;14.01;52.63;96330.63;5061078;28;20047;-67
2023/04/12 08:33:03;;;;;;;3.10;2.60;;;10.90;99.90;;;14.05;52.54;96334.50;5063324;28;20037;-67
2023/04/12 08:35:31;;;;;;;4.13;2.23;;;10.90;99.90;;;14.09;52.87;96332.22;5064435;28;20037;-64
2023/04/12 08:38:05;;;;;;;5.63;2.37;;;11.00;99.90;;;14.13;52.81;96328.91;5062386;28;20051;-64
2023/04/12 08:40:33;;;;;;;8.27;2.45;;;11.00;99.90;;;14.15;52.81;96326.84;5059394;28;20044;-64
2023/04/12 08:43:05;;;;;;;2.47;1.80;;;11.00;99.90;;;14.20;52.74;96336.06;5062617;28;20056;-64
2023/04/12 08:45:35;;;;;;;4.37;2.93;;;11.10;99.90;;;14.28;53.02;96335.81;5064456;28;20051;-64
2023/04/12 08:48:04;;;;;;;6.67;2.10;;;11.20;99.90;;;14.33;52.92;96333.31;5062939;28;20047;-65
2023/04/12 08:50:32;;;;;;;4.28;2.08;;;11.20;99.90;;;14.38;52.87;96326.28;5061243;28;20045;-64
2023/04/12 08:53:00;;;;;;;4.37;2.50;;;11.40;99.90;;;14.44;52.94;96326.41;5061809;28;20439;-64
2023/04/12 08:55:28;;;;;;;4.07;2.13;;;11.40;99.90;;;14.43;53.02;96327.47;5062937;28;20417;-64
2023/04/12 08:57:55;;;;;;;2.10;1.60;;;11.50;99.90;;;14.46;52.93;96325.19;5063748;28;20040;-64
2023/04/12 09:00:24;;;;;;;4.22;2.20;;;11.50;99.90;;;14.51;53.46;96314.63;5065603;28;20501;-64
2023/04/12 09:02:52;;;;;;;3.90;2.33;;;11.60;99.90;;;14.60;53.19;96314.38;5062454;28;20044;-63
2023/04/12 09:05:29;;;;;;;5.95;2.97;;;11.60;99.90;;;14.63;53.05;96308.59;5060238;28;20045;-64
2023/04/12 09:07:57;;;;;;;6.07;3.38;;;11.60;99.90;;;14.65;52.95;96309.19;5062082;28;20483;-64
2023/04/12 09:10:37;;;;;;;4.78;3.03;;;11.60;99.90;;;14.65;53.04;96299.28;5063975;28;20048;-64
2023/04/12 09:13:06;;;;;;;6.80;3.00;;;11.60;99.90;;;14.67;53.08;96293.72;5059971;28;20055;-64
2023/04/12 09:15:34;;;;;;;4.40;2.58;;;11.60;99.90;;;14.70;53.12;96291.41;5060174;28;20051;-64
2023/04/12 09:18:09;;;;;;;4.15;2.15;;;11.70;99.90;;;14.73;52.86;96274.06;5061885;28;20049;-64
2023/04/12 09:20:39;;;;;;;5.50;2.65;;;11.70;99.90;;;14.72;53.05;96280.50;5046394;28;20060;-63
2023/04/12 09:23:22;;;;;;;3.47;2.92;;;11.70;99.90;;;14.76;53.15;96279.00;5059777;28;20057;-63
2023/04/12 09:25:51;;;;;;;3.25;2.00;;;11.80;99.90;;;14.80;52.96;96280.19;5060263;28;20529;-62
2023/04/12 09:28:24;;;;;;;3.53;1.92;;;11.80;99.90;;;14.78;52.78;96282.28;5052482;28;20411;-63
2023/04/12 09:30:53;;;;;;;3.92;1.88;;;11.80;99.90;;;14.80;52.79;96279.38;5060331;28;20068;-63
2023/04/12 09:33:34;;;;;;;6.30;2.60;;;11.80;99.90;;;14.87;52.76;96270.25;5052483;28;20063;-62
2023/04/12 09:36:04;;;;;;;4.75;1.95;;;11.90;99.90;;;14.75;53.01;96278.19;5061215;28;20049;-63
2023/04/12 09:38:33;;;;;;;3.58;1.90;;;11.90;99.90;;;14.87;52.74;96272.09;5063788;28;20517;-62
2023/04/12 09:41:24;;;;;;;3.65;2.30;;;11.90;99.90;;;14.96;52.65;96266.22;5062142;28;20501;-62
2023/04/12 09:43:54;;;;;;;3.83;2.85;;;12.00;99.90;;;15.03;52.83;96268.84;5059868;28;20044;-62
2023/04/12 09:46:21;;;;;;;5.68;2.63;;;12.00;99.90;;;14.99;52.88;96259.59;5060481;28;20056;-64
2023/04/12 09:48:52;;;;;;;4.03;2.13;;;12.10;99.90;;;15.10;52.86;96266.06;5062746;28;20041;-63
2023/04/12 09:51:28;;;;;;;3.65;2.30;;;12.20;99.90;;;15.13;52.88;96258.41;5051983;28;20143;-63
2023/04/12 09:54:02;;;;;;;5.10;2.22;;;12.20;99.90;;;15.16;52.97;96265.19;5059844;28;20041;-63
2023/04/12 09:56:35;;;;;;;3.92;1.88;;;12.20;99.90;;;15.14;52.93;96260.06;5063328;28;20531;-63
2023/04/12 09:59:05;;;;;;;3.40;1.70;;;12.30;99.90;;;15.21;53.05;96264.50;5061748;28;20045;-63
2023/04/12 10:01:40;;;;;;;3.85;2.38;;;12.30;99.90;;;15.21;52.77;96251.13;5059782;28;20413;-63
2023/04/12 10:04:08;;;;;;;6.30;2.20;;;12.30;99.90;;;15.31;53.05;96254.06;5059477;28;20052;-62
2023/04/12 10:06:37;;;;;;;4.25;2.35;;;12.40;99.90;;;15.31;53.19;96257.56;5063115;28;20059;-63
2023/04/12 10:09:05;;;;;;;4.70;2.20;;;12.40;99.90;;;15.43;53.21;96260.34;5061489;28;20437;-63
2023/04/12 10:11:33;;;;;;;3.83;2.25;;;12.50;99.90;;;15.48;53.19;96243.56;5057777;28;20053;-63
2023/04/12 10:14:05;;;;;;;4.93;2.40;;;12.60;99.90;;;15.55;52.93;96244.28;5060079;28;20045;-63
2023/04/12 10:16:33;;;;;;;3.78;1.90;;;12.70;99.50;;;15.51;52.54;96257.34;5061955;28;20040;-63
2023/04/12 10:19:02;;;;;;;7.70;2.13;;;12.60;97.90;;;15.58;52.42;96249.19;5062048;28;20044;-63
2023/04/12 10:21:30;;;;;;;2.75;1.85;;;12.60;97.40;;;15.54;52.84;96254.19;5059423;28;20490;-63
2023/04/12 10:23:59;;;;;;;3.42;2.38;;;12.70;98.20;;;15.62;52.67;96257.59;5057821;28;20045;-63
2023/04/12 10:26:27;;;;;;;3.40;1.73;;;12.80;97.30;;;15.68;52.54;96238.75;5065695;28;20544;-63
2023/04/12 10:29:26;;;;;;;3.35;1.80;;;12.80;97.00;;;15.66;52.28;96238.13;5059267;28;20426;-63
2023/04/12 10:32:18;;;;;;;3.42;1.80;;;12.90;95.10;;;15.81;52.26;96243.13;5056013;28;20111;-63
2023/04/12 10:34:55;;;;;;;2.33;2.08;;;12.90;95.10;;;15.87;52.11;96246.75;5058112;28;20036;-63
2023/04/12 10:38:04;;;;;;;3.38;1.77;;;13.10;93.80;;;15.96;52.15;96240.03;5050062;28;20453;-63
2023/04/12 10:40:33;;;;;;;2.50;1.70;;;13.20;93.50;;;16.01;51.91;96237.47;5052633;28;20044;-63